Cee Vee, Texas
Current Conditions -  °F | °C
As of 9:53 AM on Monday 26 Jan 2015 (Local Time) from KCDS Reporting Station
Clear Clear  
Wind Chill: 55°   Ceiling: Unl
Heat Index: 55°   Visibility: 10mi
Dew Point: 32°   Wind: 14mph
Humidity: 42%   Direction: 310°NW
Pressure: 30.21"   Gusts: NA
Location:  34.22°N, 100.45°W
Report Text: KCDS 261553Z AUTO 31012KT 10SM CLR 13/00 A3021 RMK AO2 SLP224 T01280000
Loading
Personal Weather Stations






























Interactive Weather Map New forecast layout! Learn more

10-Day Weather Forecast

Advertisements
Track Severe Weather on mobile